sensor_id;sensor_type;location;lat;lon;timestamp;P1;durP1;ratioP1;P2;durP2;ratioP2
25854;SDS011;13680;49.936;11.344;2024-01-15T00:01:54;79.30;;;25.65;;
25854;SDS011;13680;49.936;11.344;2024-01-15T00:04:20;84.93;;;25.83;;
25854;SDS011;13680;49.936;11.344;2024-01-15T00:06:45;80.93;;;26.23;;
25854;SDS011;13680;49.936;11.344;2024-01-15T00:09:10;67.15;;;22.08;;
25854;SDS011;13680;49.936;11.344;2024-01-15T00:11:36;88.45;;;27.77;;
25854;SDS011;13680;49.936;11.344;2024-01-15T00:14:01;84.95;;;26.50;;
25854;SDS011;13680;49.936;11.344;2024-01-15T00:16:28;87.03;;;28.55;;
25854;SDS011;13680;49.936;11.344;2024-01-15T00:18:53;82.10;;;23.20;;
25854;SDS011;13680;49.936;11.344;2024-01-15T00:21:18;76.57;;;24.10;;
25854;SDS011;13680;49.936;11.344;2024-01-15T00:23:44;83.43;;;24.60;;
25854;SDS011;13680;49.936;11.344;2024-01-15T00:26:09;79.82;;;25.05;;
25854;SDS011;13680;49.936;11.344;2024-01-15T00:28:35;93.85;;;25.98;;
25854;SDS011;13680;49.936;11.344;2024-01-15T00:31:04;85.50;;;25.42;;
25854;SDS011;13680;49.936;11.344;2024-01-15T00:33:30;84.30;;;28.00;;
25854;SDS011;13680;49.936;11.344;2024-01-15T00:35:55;87.82;;;25.98;;
25854;SDS011;13680;49.936;11.344;2024-01-15T00:38:21;84.65;;;26.33;;
25854;SDS011;13680;49.936;11.344;2024-01-15T00:40:46;90.70;;;28.63;;
25854;SDS011;13680;49.936;11.344;2024-01-15T00:43:12;90.40;;;27.23;;
25854;SDS011;13680;49.936;11.344;2024-01-15T00:45:37;83.32;;;24.08;;
25854;SDS011;13680;49.936;11.344;2024-01-15T00:48:03;85.57;;;26.35;;
25854;SDS011;13680;49.936;11.344;2024-01-15T00:50:28;91.50;;;25.75;;
25854;SDS011;13680;49.936;11.344;2024-01-15T00:52:54;88.22;;;27.73;;
25854;SDS011;13680;49.936;11.344;2024-01-15T00:55:19;83.78;;;23.90;;
25854;SDS011;13680;49.936;11.344;2024-01-15T00:57:44;92.63;;;27.58;;
25854;SDS011;13680;49.936;11.344;2024-01-15T01:00:10;92.95;;;26.15;;
25854;SDS011;13680;49.936;11.344;2024-01-15T01:02:36;90.85;;;26.02;;
25854;SDS011;13680;49.936;11.344;2024-01-15T01:05:02;84.47;;;26.48;;
25854;SDS011;13680;49.936;11.344;2024-01-15T01:07:28;74.05;;;21.88;;
25854;SDS011;13680;49.936;11.344;2024-01-15T01:09:53;93.82;;;25.42;;
25854;SDS011;13680;49.936;11.344;2024-01-15T01:12:19;88.53;;;25.77;;
25854;SDS011;13680;49.936;11.344;2024-01-15T01:14:44;93.75;;;23.55;;
25854;SDS011;13680;49.936;11.344;2024-01-15T01:17:09;92.05;;;25.45;;
25854;SDS011;13680;49.936;11.344;2024-01-15T01:19:34;91.63;;;25.55;;
25854;SDS011;13680;49.936;11.344;2024-01-15T01:22:00;92.57;;;26.35;;
25854;SDS011;13680;49.936;11.344;2024-01-15T01:24:25;93.28;;;26.48;;
25854;SDS011;13680;49.936;11.344;2024-01-15T01:26:50;92.60;;;24.45;;
25854;SDS011;13680;49.936;11.344;2024-01-15T01:29:16;87.32;;;25.15;;
25854;SDS011;13680;49.936;11.344;2024-01-15T01:31:44;83.10;;;23.27;;
25854;SDS011;13680;49.936;11.344;2024-01-15T01:34:10;89.30;;;25.23;;
25854;SDS011;13680;49.936;11.344;2024-01-15T01:36:36;83.80;;;25.00;;
25854;SDS011;13680;49.936;11.344;2024-01-15T01:39:01;85.40;;;23.50;;
25854;SDS011;13680;49.936;11.344;2024-01-15T01:41:27;83.47;;;24.83;;
25854;SDS011;13680;49.936;11.344;2024-01-15T01:43:52;84.18;;;24.10;;
25854;SDS011;13680;49.936;11.344;2024-01-15T01:46:18;73.78;;;20.90;;
25854;SDS011;13680;49.936;11.344;2024-01-15T01:48:43;72.72;;;21.27;;
25854;SDS011;13680;49.936;11.344;2024-01-15T01:51:09;71.10;;;21.77;;
25854;SDS011;13680;49.936;11.344;2024-01-15T01:53:35;73.80;;;21.65;;
25854;SDS011;13680;49.936;11.344;2024-01-15T01:56:02;68.93;;;21.05;;
25854;SDS011;13680;49.936;11.344;2024-01-15T01:58:28;72.40;;;20.85;;
25854;SDS011;13680;49.936;11.344;2024-01-15T02:00:55;66.28;;;19.30;;
25854;SDS011;13680;49.936;11.344;2024-01-15T02:03:21;56.35;;;17.13;;
25854;SDS011;13680;49.936;11.344;2024-01-15T02:05:47;69.07;;;19.55;;
25854;SDS011;13680;49.936;11.344;2024-01-15T02:08:14;58.50;;;18.35;;
25854;SDS011;13680;49.936;11.344;2024-01-15T02:10:40;61.70;;;19.58;;
25854;SDS011;13680;49.936;11.344;2024-01-15T02:13:05;67.68;;;20.27;;
25854;SDS011;13680;49.936;11.344;2024-01-15T02:15:30;57.20;;;17.95;;
25854;SDS011;13680;49.936;11.344;2024-01-15T02:17:57;62.75;;;18.85;;
25854;SDS011;13680;49.936;11.344;2024-01-15T02:20:23;61.45;;;20.77;;
25854;SDS011;13680;49.936;11.344;2024-01-15T02:22:49;56.40;;;17.77;;
25854;SDS011;13680;49.936;11.344;2024-01-15T02:25:14;69.72;;;19.88;;
25854;SDS011;13680;49.936;11.344;2024-01-15T02:27:39;66.68;;;20.10;;
25854;SDS011;13680;49.936;11.344;2024-01-15T02:30:05;56.95;;;18.45;;
25854;SDS011;13680;49.936;11.344;2024-01-15T02:32:33;65.72;;;19.30;;
25854;SDS011;13680;49.936;11.344;2024-01-15T02:34:58;64.32;;;19.05;;
25854;SDS011;13680;49.936;11.344;2024-01-15T02:37:23;66.32;;;20.73;;
25854;SDS011;13680;49.936;11.344;2024-01-15T02:39:49;61.50;;;20.05;;
25854;SDS011;13680;49.936;11.344;2024-01-15T02:42:14;63.10;;;19.92;;
25854;SDS011;13680;49.936;11.344;2024-01-15T02:44:40;63.33;;;20.13;;
25854;SDS011;13680;49.936;11.344;2024-01-15T02:47:05;59.88;;;19.50;;
25854;SDS011;13680;49.936;11.344;2024-01-15T02:49:30;67.97;;;20.40;;
25854;SDS011;13680;49.936;11.344;2024-01-15T02:51:57;64.88;;;20.73;;
25854;SDS011;13680;49.936;11.344;2024-01-15T02:54:22;68.25;;;20.95;;
25854;SDS011;13680;49.936;11.344;2024-01-15T02:56:48;61.90;;;17.73;;
25854;SDS011;13680;49.936;11.344;2024-01-15T02:59:13;59.33;;;19.20;;
25854;SDS011;13680;49.936;11.344;2024-01-15T03:01:38;65.07;;;21.88;;
25854;SDS011;13680;49.936;11.344;2024-01-15T03:04:04;68.00;;;20.17;;
25854;SDS011;13680;49.936;11.344;2024-01-15T03:06:29;68.00;;;20.23;;
25854;SDS011;13680;49.936;11.344;2024-01-15T03:08:54;70.65;;;20.92;;
25854;SDS011;13680;49.936;11.344;2024-01-15T03:11:20;61.80;;;19.63;;
25854;SDS011;13680;49.936;11.344;2024-01-15T03:13:45;61.13;;;20.13;;
25854;SDS011;13680;49.936;11.344;2024-01-15T03:16:10;67.70;;;20.00;;
25854;SDS011;13680;49.936;11.344;2024-01-15T03:18:36;63.75;;;18.80;;
25854;SDS011;13680;49.936;11.344;2024-01-15T03:21:01;59.83;;;18.67;;
25854;SDS011;13680;49.936;11.344;2024-01-15T03:23:27;65.97;;;20.83;;
25854;SDS011;13680;49.936;11.344;2024-01-15T03:25:52;63.58;;;19.40;;
25854;SDS011;13680;49.936;11.344;2024-01-15T03:28:17;59.88;;;19.88;;
25854;SDS011;13680;49.936;11.344;2024-01-15T03:30:43;55.55;;;19.27;;
25854;SDS011;13680;49.936;11.344;2024-01-15T03:33:08;58.80;;;19.27;;
25854;SDS011;13680;49.936;11.344;2024-01-15T03:35:33;61.33;;;18.98;;
25854;SDS011;13680;49.936;11.344;2024-01-15T03:37:59;55.47;;;18.27;;
25854;SDS011;13680;49.936;11.344;2024-01-15T03:40:24;62.35;;;18.80;;
25854;SDS011;13680;49.936;11.344;2024-01-15T03:42:50;57.58;;;19.17;;
25854;SDS011;13680;49.936;11.344;2024-01-15T03:45:16;56.10;;;18.83;;
25854;SDS011;13680;49.936;11.344;2024-01-15T03:47:41;55.25;;;18.42;;
25854;SDS011;13680;49.936;11.344;2024-01-15T03:50:07;53.20;;;17.90;;
25854;SDS011;13680;49.936;11.344;2024-01-15T03:52:32;49.88;;;18.58;;
25854;SDS011;13680;49.936;11.344;2024-01-15T03:54:57;53.47;;;19.23;;
25854;SDS011;13680;49.936;11.344;2024-01-15T03:57:23;50.03;;;17.27;;
25854;SDS011;13680;49.936;11.344;2024-01-15T03:59:48;53.65;;;18.20;;
25854;SDS011;13680;49.936;11.344;2024-01-15T04:02:13;54.05;;;16.95;;
25854;SDS011;13680;49.936;11.344;2024-01-15T04:04:42;43.42;;;16.55;;
25854;SDS011;13680;49.936;11.344;2024-01-15T04:07:09;43.65;;;16.02;;
25854;SDS011;13680;49.936;11.344;2024-01-15T04:09:34;48.33;;;17.00;;
25854;SDS011;13680;49.936;11.344;2024-01-15T04:12:00;50.42;;;17.75;;
25854;SDS011;13680;49.936;11.344;2024-01-15T04:14:25;51.15;;;16.67;;
25854;SDS011;13680;49.936;11.344;2024-01-15T04:16:50;54.83;;;17.08;;
25854;SDS011;13680;49.936;11.344;2024-01-15T04:19:15;52.83;;;17.52;;
25854;SDS011;13680;49.936;11.344;2024-01-15T04:21:41;48.75;;;16.25;;
25854;SDS011;13680;49.936;11.344;2024-01-15T04:24:06;50.83;;;15.90;;
25854;SDS011;13680;49.936;11.344;2024-01-15T04:26:32;51.75;;;17.58;;
25854;SDS011;13680;49.936;11.344;2024-01-15T04:28:57;52.58;;;18.40;;
25854;SDS011;13680;49.936;11.344;2024-01-15T04:31:24;49.67;;;16.60;;
25854;SDS011;13680;49.936;11.344;2024-01-15T04:33:51;59.38;;;17.55;;
25854;SDS011;13680;49.936;11.344;2024-01-15T04:36:17;49.55;;;16.20;;
25854;SDS011;13680;49.936;11.344;2024-01-15T04:38:42;56.20;;;17.48;;
25854;SDS011;13680;49.936;11.344;2024-01-15T04:41:11;49.55;;;16.08;;
25854;SDS011;13680;49.936;11.344;2024-01-15T04:43:37;52.85;;;17.30;;
25854;SDS011;13680;49.936;11.344;2024-01-15T04:46:05;45.15;;;17.10;;
25854;SDS011;13680;49.936;11.344;2024-01-15T04:48:32;51.28;;;16.30;;
25854;SDS011;13680;49.936;11.344;2024-01-15T04:50:57;55.92;;;18.42;;
25854;SDS011;13680;49.936;11.344;2024-01-15T04:53:23;51.97;;;14.60;;
25854;SDS011;13680;49.936;11.344;2024-01-15T04:55:48;51.03;;;15.00;;
25854;SDS011;13680;49.936;11.344;2024-01-15T04:58:13;48.08;;;17.05;;
25854;SDS011;13680;49.936;11.344;2024-01-15T05:00:39;55.95;;;18.05;;
25854;SDS011;13680;49.936;11.344;2024-01-15T05:03:04;53.13;;;17.17;;
25854;SDS011;13680;49.936;11.344;2024-01-15T05:05:30;49.95;;;16.90;;
25854;SDS011;13680;49.936;11.344;2024-01-15T05:07:55;50.67;;;17.27;;
25854;SDS011;13680;49.936;11.344;2024-01-15T05:10:20;44.20;;;15.43;;
25854;SDS011;13680;49.936;11.344;2024-01-15T05:12:45;47.40;;;16.25;;
25854;SDS011;13680;49.936;11.344;2024-01-15T05:15:11;48.58;;;16.58;;
25854;SDS011;13680;49.936;11.344;2024-01-15T05:17:36;53.33;;;16.95;;
25854;SDS011;13680;49.936;11.344;2024-01-15T05:20:01;52.33;;;17.20;;
25854;SDS011;13680;49.936;11.344;2024-01-15T05:22:28;49.42;;;17.38;;
25854;SDS011;13680;49.936;11.344;2024-01-15T05:24:53;48.42;;;17.02;;
25854;SDS011;13680;49.936;11.344;2024-01-15T05:27:18;48.65;;;15.27;;
25854;SDS011;13680;49.936;11.344;2024-01-15T05:29:44;48.10;;;16.00;;
25854;SDS011;13680;49.936;11.344;2024-01-15T05:32:09;44.75;;;15.50;;
25854;SDS011;13680;49.936;11.344;2024-01-15T05:34:35;50.30;;;16.00;;
25854;SDS011;13680;49.936;11.344;2024-01-15T05:37:00;45.38;;;16.35;;
25854;SDS011;13680;49.936;11.344;2024-01-15T05:39:25;41.80;;;14.90;;
25854;SDS011;13680;49.936;11.344;2024-01-15T05:41:51;45.92;;;16.55;;
25854;SDS011;13680;49.936;11.344;2024-01-15T05:44:16;43.28;;;16.20;;
25854;SDS011;13680;49.936;11.344;2024-01-15T05:46:42;42.35;;;15.25;;
25854;SDS011;13680;49.936;11.344;2024-01-15T05:49:07;50.63;;;15.98;;
25854;SDS011;13680;49.936;11.344;2024-01-15T05:51:32;40.97;;;15.35;;
25854;SDS011;13680;49.936;11.344;2024-01-15T05:53:58;48.13;;;15.40;;
25854;SDS011;13680;49.936;11.344;2024-01-15T05:56:23;43.70;;;15.95;;
25854;SDS011;13680;49.936;11.344;2024-01-15T05:58:49;45.05;;;14.82;;
25854;SDS011;13680;49.936;11.344;2024-01-15T06:01:14;39.08;;;15.02;;
25854;SDS011;13680;49.936;11.344;2024-01-15T06:03:40;36.58;;;12.98;;
25854;SDS011;13680;49.936;11.344;2024-01-15T06:06:05;47.58;;;15.23;;
25854;SDS011;13680;49.936;11.344;2024-01-15T06:08:30;38.40;;;13.68;;
25854;SDS011;13680;49.936;11.344;2024-01-15T06:10:56;39.97;;;14.40;;
25854;SDS011;13680;49.936;11.344;2024-01-15T06:13:21;41.40;;;14.02;;
25854;SDS011;13680;49.936;11.344;2024-01-15T06:15:47;44.33;;;16.25;;
25854;SDS011;13680;49.936;11.344;2024-01-15T06:18:12;41.15;;;14.93;;
25854;SDS011;13680;49.936;11.344;2024-01-15T06:20:38;38.45;;;13.15;;
25854;SDS011;13680;49.936;11.344;2024-01-15T06:23:03;41.85;;;14.07;;
25854;SDS011;13680;49.936;11.344;2024-01-15T06:25:28;39.00;;;14.02;;
25854;SDS011;13680;49.936;11.344;2024-01-15T06:27:54;40.35;;;13.77;;
25854;SDS011;13680;49.936;11.344;2024-01-15T06:30:19;35.60;;;13.07;;
25854;SDS011;13680;49.936;11.344;2024-01-15T06:32:45;38.72;;;12.68;;
25854;SDS011;13680;49.936;11.344;2024-01-15T06:35:10;41.55;;;14.15;;
25854;SDS011;13680;49.936;11.344;2024-01-15T06:37:36;36.33;;;13.65;;
25854;SDS011;13680;49.936;11.344;2024-01-15T06:40:02;37.88;;;12.95;;
25854;SDS011;13680;49.936;11.344;2024-01-15T06:42:28;39.55;;;13.45;;
25854;SDS011;13680;49.936;11.344;2024-01-15T06:44:53;40.80;;;14.93;;
25854;SDS011;13680;49.936;11.344;2024-01-15T06:47:18;36.40;;;13.57;;
25854;SDS011;13680;49.936;11.344;2024-01-15T06:49:44;40.28;;;13.07;;
25854;SDS011;13680;49.936;11.344;2024-01-15T06:52:09;34.95;;;12.38;;
25854;SDS011;13680;49.936;11.344;2024-01-15T06:54:34;35.85;;;13.95;;
25854;SDS011;13680;49.936;11.344;2024-01-15T06:57:00;43.67;;;14.73;;
25854;SDS011;13680;49.936;11.344;2024-01-15T06:59:25;37.78;;;13.63;;
25854;SDS011;13680;49.936;11.344;2024-01-15T07:01:50;36.85;;;13.82;;
25854;SDS011;13680;49.936;11.344;2024-01-15T07:04:16;39.28;;;15.20;;
25854;SDS011;13680;49.936;11.344;2024-01-15T07:06:41;43.25;;;14.27;;
25854;SDS011;13680;49.936;11.344;2024-01-15T07:09:06;39.08;;;14.75;;
25854;SDS011;13680;49.936;11.344;2024-01-15T07:11:33;44.08;;;15.82;;
25854;SDS011;13680;49.936;11.344;2024-01-15T07:13:58;29.20;;;11.73;;
25854;SDS011;13680;49.936;11.344;2024-01-15T07:16:23;39.00;;;14.45;;
25854;SDS011;13680;49.936;11.344;2024-01-15T07:18:49;37.47;;;14.27;;
25854;SDS011;13680;49.936;11.344;2024-01-15T07:21:14;34.80;;;13.80;;
25854;SDS011;13680;49.936;11.344;2024-01-15T07:23:40;41.10;;;14.98;;
25854;SDS011;13680;49.936;11.344;2024-01-15T07:26:05;39.92;;;14.20;;
25854;SDS011;13680;49.936;11.344;2024-01-15T07:28:31;41.85;;;15.80;;
25854;SDS011;13680;49.936;11.344;2024-01-15T07:30:57;39.70;;;14.80;;
25854;SDS011;13680;49.936;11.344;2024-01-15T07:33:22;37.72;;;14.43;;
25854;SDS011;13680;49.936;11.344;2024-01-15T07:35:47;39.03;;;14.57;;
25854;SDS011;13680;49.936;11.344;2024-01-15T07:38:13;46.63;;;15.50;;
25854;SDS011;13680;49.936;11.344;2024-01-15T07:40:38;35.70;;;13.65;;
25854;SDS011;13680;49.936;11.344;2024-01-15T07:43:04;39.97;;;14.95;;
25854;SDS011;13680;49.936;11.344;2024-01-15T07:45:29;39.50;;;15.68;;
25854;SDS011;13680;49.936;11.344;2024-01-15T07:47:55;40.95;;;15.50;;
25854;SDS011;13680;49.936;11.344;2024-01-15T07:50:20;39.42;;;14.73;;
25854;SDS011;13680;49.936;11.344;2024-01-15T07:52:46;35.40;;;13.70;;
25854;SDS011;13680;49.936;11.344;2024-01-15T07:55:11;39.00;;;14.82;;
25854;SDS011;13680;49.936;11.344;2024-01-15T07:57:37;39.28;;;13.68;;
25854;SDS011;13680;49.936;11.344;2024-01-15T08:00:02;39.35;;;14.60;;
25854;SDS011;13680;49.936;11.344;2024-01-15T08:02:30;33.63;;;13.32;;
25854;SDS011;13680;49.936;11.344;2024-01-15T08:04:57;39.47;;;15.15;;
25854;SDS011;13680;49.936;11.344;2024-01-15T08:07:23;34.28;;;13.00;;
25854;SDS011;13680;49.936;11.344;2024-01-15T08:09:49;32.78;;;12.52;;
25854;SDS011;13680;49.936;11.344;2024-01-15T08:12:14;33.92;;;13.13;;
25854;SDS011;13680;49.936;11.344;2024-01-15T08:14:40;40.33;;;14.15;;
25854;SDS011;13680;49.936;11.344;2024-01-15T08:17:05;36.15;;;13.98;;
25854;SDS011;13680;49.936;11.344;2024-01-15T08:19:30;44.45;;;14.82;;
25854;SDS011;13680;49.936;11.344;2024-01-15T08:21:56;38.95;;;15.52;;
25854;SDS011;13680;49.936;11.344;2024-01-15T08:24:21;40.83;;;15.15;;
25854;SDS011;13680;49.936;11.344;2024-01-15T08:26:47;38.08;;;13.88;;
25854;SDS011;13680;49.936;11.344;2024-01-15T08:29:12;42.80;;;15.38;;
25854;SDS011;13680;49.936;11.344;2024-01-15T08:31:37;38.05;;;12.10;;
25854;SDS011;13680;49.936;11.344;2024-01-15T08:34:03;45.75;;;15.45;;
25854;SDS011;13680;49.936;11.344;2024-01-15T08:36:28;38.22;;;14.55;;
25854;SDS011;13680;49.936;11.344;2024-01-15T08:38:56;48.72;;;16.98;;
25854;SDS011;13680;49.936;11.344;2024-01-15T08:41:22;43.10;;;14.60;;
25854;SDS011;13680;49.936;11.344;2024-01-15T08:43:48;38.70;;;15.88;;
25854;SDS011;13680;49.936;11.344;2024-01-15T08:46:13;42.22;;;16.33;;
25854;SDS011;13680;49.936;11.344;2024-01-15T08:48:39;45.80;;;17.40;;
25854;SDS011;13680;49.936;11.344;2024-01-15T08:51:04;40.35;;;14.55;;
25854;SDS011;13680;49.936;11.344;2024-01-15T08:53:30;45.67;;;15.95;;
25854;SDS011;13680;49.936;11.344;2024-01-15T08:55:55;41.50;;;14.98;;
25854;SDS011;13680;49.936;11.344;2024-01-15T08:58:22;38.53;;;14.20;;
25854;SDS011;13680;49.936;11.344;2024-01-15T09:00:48;44.17;;;15.63;;
25854;SDS011;13680;49.936;11.344;2024-01-15T09:03:13;44.17;;;15.27;;
25854;SDS011;13680;49.936;11.344;2024-01-15T09:05:39;43.65;;;16.52;;
25854;SDS011;13680;49.936;11.344;2024-01-15T09:08:06;36.25;;;14.75;;
25854;SDS011;13680;49.936;11.344;2024-01-15T09:10:31;33.22;;;13.07;;
25854;SDS011;13680;49.936;11.344;2024-01-15T09:12:56;34.05;;;12.75;;
25854;SDS011;13680;49.936;11.344;2024-01-15T09:15:21;35.63;;;14.38;;
25854;SDS011;13680;49.936;11.344;2024-01-15T09:17:47;34.13;;;14.13;;
25854;SDS011;13680;49.936;11.344;2024-01-15T09:20:12;31.80;;;12.82;;
25854;SDS011;13680;49.936;11.344;2024-01-15T09:22:38;34.38;;;14.18;;
25854;SDS011;13680;49.936;11.344;2024-01-15T09:25:06;33.53;;;13.73;;
25854;SDS011;13680;49.936;11.344;2024-01-15T09:27:32;44.60;;;19.48;;
25854;SDS011;13680;49.936;11.344;2024-01-15T09:29:57;37.53;;;15.73;;
25854;SDS011;13680;49.936;11.344;2024-01-15T09:32:23;41.72;;;15.45;;
25854;SDS011;13680;49.936;11.344;2024-01-15T09:34:48;36.60;;;13.30;;
25854;SDS011;13680;49.936;11.344;2024-01-15T09:37:14;36.45;;;15.65;;
25854;SDS011;13680;49.936;11.344;2024-01-15T09:39:39;40.50;;;15.52;;
25854;SDS011;13680;49.936;11.344;2024-01-15T09:42:05;36.75;;;14.50;;
25854;SDS011;13680;49.936;11.344;2024-01-15T09:44:32;44.80;;;17.75;;
25854;SDS011;13680;49.936;11.344;2024-01-15T09:46:57;36.58;;;16.13;;
25854;SDS011;13680;49.936;11.344;2024-01-15T09:49:23;40.63;;;16.92;;
25854;SDS011;13680;49.936;11.344;2024-01-15T09:51:49;25.83;;;7.43;;
25854;SDS011;13680;49.936;11.344;2024-01-15T09:54:15;35.08;;;15.27;;
25854;SDS011;13680;49.936;11.344;2024-01-15T09:56:42;36.20;;;15.07;;
25854;SDS011;13680;49.936;11.344;2024-01-15T09:59:12;28.67;;;13.23;;
25854;SDS011;13680;49.936;11.344;2024-01-15T10:01:41;40.97;;;16.77;;
25854;SDS011;13680;49.936;11.344;2024-01-15T10:04:08;33.20;;;12.52;;
25854;SDS011;13680;49.936;11.344;2024-01-15T10:06:33;32.63;;;14.02;;
25854;SDS011;13680;49.936;11.344;2024-01-15T10:08:59;33.53;;;12.77;;
25854;SDS011;13680;49.936;11.344;2024-01-15T10:11:25;26.23;;;11.85;;
25854;SDS011;13680;49.936;11.344;2024-01-15T10:13:51;39.50;;;13.80;;
25854;SDS011;13680;49.936;11.344;2024-01-15T10:16:21;34.88;;;12.50;;
25854;SDS011;13680;49.936;11.344;2024-01-15T10:18:47;30.88;;;12.20;;
25854;SDS011;13680;49.936;11.344;2024-01-15T10:21:13;33.38;;;12.65;;
25854;SDS011;13680;49.936;11.344;2024-01-15T10:23:39;29.30;;;13.25;;
25854;SDS011;13680;49.936;11.344;2024-01-15T10:26:04;31.52;;;13.20;;
25854;SDS011;13680;49.936;11.344;2024-01-15T10:28:30;28.63;;;12.00;;
25854;SDS011;13680;49.936;11.344;2024-01-15T10:30:57;26.63;;;11.18;;
25854;SDS011;13680;49.936;11.344;2024-01-15T10:33:26;31.42;;;12.13;;
25854;SDS011;13680;49.936;11.344;2024-01-15T10:35:55;32.55;;;14.20;;
25854;SDS011;13680;49.936;11.344;2024-01-15T10:38:22;27.50;;;11.13;;
25854;SDS011;13680;49.936;11.344;2024-01-15T10:40:51;30.38;;;11.75;;
25854;SDS011;13680;49.936;11.344;2024-01-15T10:43:18;32.50;;;15.15;;
25854;SDS011;13680;49.936;11.344;2024-01-15T10:45:44;31.45;;;13.57;;
25854;SDS011;13680;49.936;11.344;2024-01-15T10:48:10;32.45;;;14.10;;
25854;SDS011;13680;49.936;11.344;2024-01-15T10:50:36;28.35;;;11.63;;
25854;SDS011;13680;49.936;11.344;2024-01-15T10:53:02;34.60;;;14.10;;
25854;SDS011;13680;49.936;11.344;2024-01-15T10:55:29;31.58;;;12.95;;
25854;SDS011;13680;49.936;11.344;2024-01-15T10:57:55;29.85;;;11.95;;
25854;SDS011;13680;49.936;11.344;2024-01-15T11:00:22;35.15;;;14.30;;
25854;SDS011;13680;49.936;11.344;2024-01-15T11:02:47;36.03;;;13.23;;
25854;SDS011;13680;49.936;11.344;2024-01-15T11:05:13;33.15;;;12.75;;
25854;SDS011;13680;49.936;11.344;2024-01-15T11:07:39;27.65;;;12.68;;
25854;SDS011;13680;49.936;11.344;2024-01-15T11:10:05;43.53;;;15.82;;
25854;SDS011;13680;49.936;11.344;2024-01-15T11:12:30;37.90;;;14.82;;
25854;SDS011;13680;49.936;11.344;2024-01-15T11:15:02;33.05;;;14.10;;
25854;SDS011;13680;49.936;11.344;2024-01-15T11:20:30;33.97;;;13.38;;
25854;SDS011;13680;49.936;11.344;2024-01-15T11:22:57;32.35;;;13.25;;
25854;SDS011;13680;49.936;11.344;2024-01-15T11:25:24;28.42;;;13.07;;
25854;SDS011;13680;49.936;11.344;2024-01-15T11:28:00;41.10;;;14.13;;
25854;SDS011;13680;49.936;11.344;2024-01-15T11:30:25;30.75;;;12.65;;
25854;SDS011;13680;49.936;11.344;2024-01-15T11:32:51;30.65;;;12.75;;
25854;SDS011;13680;49.936;11.344;2024-01-15T11:35:16;30.20;;;12.52;;
25854;SDS011;13680;49.936;11.344;2024-01-15T11:38:01;31.00;;;12.85;;
25854;SDS011;13680;49.936;11.344;2024-01-15T11:42:58;29.58;;;13.60;;
25854;SDS011;13680;49.936;11.344;2024-01-15T11:45:24;28.23;;;12.45;;
25854;SDS011;13680;49.936;11.344;2024-01-15T11:48:02;30.92;;;13.23;;
25854;SDS011;13680;49.936;11.344;2024-01-15T11:50:47;31.95;;;13.27;;
25854;SDS011;13680;49.936;11.344;2024-01-15T11:53:23;31.85;;;12.98;;
25854;SDS011;13680;49.936;11.344;2024-01-15T11:55:58;57.08;;;25.35;;
25854;SDS011;13680;49.936;11.344;2024-01-15T11:58:24;30.52;;;14.32;;
25854;SDS011;13680;49.936;11.344;2024-01-15T12:00:51;29.77;;;12.25;;
25854;SDS011;13680;49.936;11.344;2024-01-15T12:03:17;29.67;;;13.02;;
25854;SDS011;13680;49.936;11.344;2024-01-15T12:05:42;38.80;;;18.25;;
25854;SDS011;13680;49.936;11.344;2024-01-15T12:08:08;33.35;;;13.50;;
25854;SDS011;13680;49.936;11.344;2024-01-15T12:10:36;32.00;;;14.35;;
25854;SDS011;13680;49.936;11.344;2024-01-15T12:13:10;31.67;;;13.80;;
25854;SDS011;13680;49.936;11.344;2024-01-15T12:15:36;34.35;;;15.07;;
25854;SDS011;13680;49.936;11.344;2024-01-15T12:18:03;35.22;;;14.38;;
25854;SDS011;13680;49.936;11.344;2024-01-15T12:20:29;30.00;;;12.50;;
25854;SDS011;13680;49.936;11.344;2024-01-15T12:22:55;35.53;;;17.25;;
25854;SDS011;13680;49.936;11.344;2024-01-15T12:25:21;32.70;;;12.93;;
25854;SDS011;13680;49.936;11.344;2024-01-15T12:27:48;30.92;;;13.70;;
25854;SDS011;13680;49.936;11.344;2024-01-15T12:30:14;36.65;;;19.05;;
25854;SDS011;13680;49.936;11.344;2024-01-15T12:32:40;34.72;;;15.18;;
25854;SDS011;13680;49.936;11.344;2024-01-15T12:35:11;37.58;;;16.52;;
25854;SDS011;13680;49.936;11.344;2024-01-15T12:37:37;42.30;;;21.00;;
25854;SDS011;13680;49.936;11.344;2024-01-15T12:40:05;27.73;;;12.15;;
25854;SDS011;13680;49.936;11.344;2024-01-15T12:42:32;27.00;;;12.32;;
25854;SDS011;13680;49.936;11.344;2024-01-15T12:44:58;40.47;;;17.48;;
25854;SDS011;13680;49.936;11.344;2024-01-15T12:47:23;47.55;;;24.20;;
25854;SDS011;13680;49.936;11.344;2024-01-15T12:49:51;34.30;;;14.57;;
25854;SDS011;13680;49.936;11.344;2024-01-15T12:52:19;34.63;;;15.27;;
25854;SDS011;13680;49.936;11.344;2024-01-15T12:54:46;29.65;;;12.95;;
25854;SDS011;13680;49.936;11.344;2024-01-15T12:57:12;25.83;;;12.05;;
25854;SDS011;13680;49.936;11.344;2024-01-15T12:59:38;28.45;;;12.52;;
25854;SDS011;13680;49.936;11.344;2024-01-15T13:02:03;28.67;;;12.70;;
25854;SDS011;13680;49.936;11.344;2024-01-15T13:04:28;27.92;;;11.77;;
25854;SDS011;13680;49.936;11.344;2024-01-15T13:06:54;23.85;;;11.45;;
25854;SDS011;13680;49.936;11.344;2024-01-15T13:09:20;22.80;;;11.13;;
25854;SDS011;13680;49.936;11.344;2024-01-15T13:11:45;25.48;;;11.73;;
25854;SDS011;13680;49.936;11.344;2024-01-15T13:14:11;27.65;;;10.50;;
25854;SDS011;13680;49.936;11.344;2024-01-15T13:16:39;23.42;;;10.18;;
25854;SDS011;13680;49.936;11.344;2024-01-15T13:19:10;26.23;;;12.25;;
25854;SDS011;13680;49.936;11.344;2024-01-15T13:21:41;27.20;;;13.15;;
25854;SDS011;13680;49.936;11.344;2024-01-15T13:24:07;25.55;;;12.02;;
25854;SDS011;13680;49.936;11.344;2024-01-15T13:26:33;24.17;;;11.35;;
25854;SDS011;13680;49.936;11.344;2024-01-15T13:29:01;25.33;;;10.93;;
25854;SDS011;13680;49.936;11.344;2024-01-15T13:31:30;30.83;;;11.50;;
25854;SDS011;13680;49.936;11.344;2024-01-15T13:33:56;35.28;;;13.82;;
25854;SDS011;13680;49.936;11.344;2024-01-15T13:36:21;29.00;;;13.52;;
25854;SDS011;13680;49.936;11.344;2024-01-15T13:38:48;52.70;;;22.88;;
25854;SDS011;13680;49.936;11.344;2024-01-15T13:41:14;127.03;;;43.40;;
25854;SDS011;13680;49.936;11.344;2024-01-15T13:43:40;36.80;;;14.65;;
25854;SDS011;13680;49.936;11.344;2024-01-15T13:46:05;36.22;;;17.10;;
25854;SDS011;13680;49.936;11.344;2024-01-15T13:48:31;26.20;;;12.57;;
25854;SDS011;13680;49.936;11.344;2024-01-15T13:50:59;25.52;;;12.63;;
25854;SDS011;13680;49.936;11.344;2024-01-15T13:53:25;30.05;;;13.05;;
25854;SDS011;13680;49.936;11.344;2024-01-15T13:55:51;30.38;;;13.30;;
25854;SDS011;13680;49.936;11.344;2024-01-15T13:58:16;26.20;;;11.43;;
25854;SDS011;13680;49.936;11.344;2024-01-15T14:00:43;30.20;;;13.48;;
25854;SDS011;13680;49.936;11.344;2024-01-15T14:03:09;33.53;;;14.70;;
25854;SDS011;13680;49.936;11.344;2024-01-15T14:05:34;33.35;;;12.95;;
25854;SDS011;13680;49.936;11.344;2024-01-15T14:07:59;26.83;;;11.68;;